Terminal Aerodrome Forecast
Issued by NWS Jacksonville, FL

Home | Current Version | Previous Version | Text Only | Print | Product List | Glossary On
Versions: 1 2 3 4 5 6 7 8 9 10 11 12 13 14 15 16 17 18
729
FTUS42 KJAX 262321
TAFGNV
TAF
KGNV 262321Z 2700/2724 VRB04KT P6SM BKN060
     FM270100 00000KT P6SM SCT070
     FM270800 00000KT 3SM BR SCT100
      TEMPO 2709/2712 1SM BR
     FM271400 14006KT P6SM SCT040=

USA.gov is the U.S. government's official web portal to all federal, state and local government web resources and services.